Time;durP1;ratioP1;P1;durP2;ratioP2;P2;SDS_P1;SDS_P2;PMS_P1;PMS_P2;Temp;Humidity;BMP_temperature;BMP_pressure;BME280_temperature;BME280_humidity;BME280_pressure;Samples;Min_cycle;Max_cycle;Signal;HPM_P1;HPM_P2
2023/05/26 00:01:38;;;;;;;;;7.00;7.00;;;;;19.51;62.00;100878.81;146616;664;47012;-67
2023/05/26 00:04:39;;;;;;;;;8.25;8.00;;;;;19.44;61.87;100871.66;146619;612;46020;-68
2023/05/26 00:07:32;;;;;;;;;9.00;8.75;;;;;19.39;62.63;100866.34;146612;587;46012;-66
2023/05/26 00:10:27;;;;;;;;;10.00;7.33;;;;;19.35;63.30;100880.28;146618;565;46020;-67
2023/05/26 00:13:20;;;;;;;;;8.50;6.75;;;;;19.29;64.10;100878.44;146612;607;46016;-67
2023/05/26 00:16:17;;;;;;;;;8.25;7.00;;;;;19.25;62.87;100865.19;146616;607;47012;-68
2023/05/26 00:19:11;;;;;;;;;8.00;8.00;;;;;19.19;63.63;100860.75;146612;689;47016;-67
2023/05/26 00:22:14;;;;;;;;;9.67;7.67;;;;;19.19;63.55;100871.25;146616;587;46030;-66
2023/05/26 00:25:15;;;;;;;;;7.00;7.00;;;;;19.24;62.71;100871.31;146613;612;46917;-67
2023/05/26 00:28:34;;;;;;;;;9.50;7.25;;;;;19.32;62.57;100901.28;146606;647;46021;-67
2023/05/26 00:31:35;;;;;;;;;8.00;8.00;;;;;19.32;61.83;100870.59;146613;583;46919;-67
2023/05/26 00:34:39;;;;;;;;;9.75;9.00;;;;;19.34;61.62;100873.25;146617;573;46020;-67
2023/05/26 00:37:51;;;;;;;;;7.67;7.00;;;;;19.31;62.20;100873.19;146614;571;46016;-68
2023/05/26 00:40:44;;;;;;;;;8.00;8.00;;;;;19.27;62.75;100876.63;146618;569;46020;-69
2023/05/26 00:43:46;;;;;;;;;7.33;7.33;;;;;19.21;62.87;100871.25;146613;606;46016;-66
2023/05/26 00:46:42;;;;;;;;;10.25;8.00;;;;;19.15;63.13;100869.41;146617;688;46020;-67
2023/05/26 00:49:45;;;;;;;;;8.00;7.00;;;;;19.13;62.71;100865.88;146607;592;47915;-66
2023/05/26 00:52:46;;;;;;;;;7.50;7.50;;;;;19.05;63.73;100868.34;146618;636;48012;-68
2023/05/26 00:55:52;;;;;;;;;10.50;9.25;;;;;18.92;64.99;100869.84;146611;683;46016;-67
2023/05/26 00:58:58;;;;;;;;;9.50;8.50;;;;;17.63;67.27;100651.06;146610;570;46011;-68
2023/05/26 01:02:27;;;;;;;;;;;;;;;;;;;;;
2023/05/26 01:05:27;;;;;;;;;8.67;7.67;;;;;18.79;66.33;100854.72;146615;631;47010;-67
2023/05/26 01:08:20;;;;;;;;;9.00;7.50;;;;;18.87;66.22;100858.34;146610;709;46916;-68
2023/05/26 01:11:28;;;;;;;;;12.00;9.50;;;;;18.98;65.84;100857.72;146616;625;46010;-69
2023/05/26 01:14:47;;;;;;;;;9.00;7.00;;;;;19.09;65.26;100858.78;146610;581;46017;-67
2023/05/26 01:18:13;;;;;;;;;9.50;8.25;;;;;16.68;64.53;100433.25;146613;649;47010;-67
2023/05/26 01:21:15;;;;;;;;;10.67;9.00;;;;;19.17;65.85;100857.19;146614;625;46017;-68
2023/05/26 01:24:53;;;;;;;;;10.50;8.00;;;;;16.11;64.08;100319.47;146609;582;47010;-68
2023/05/26 01:28:29;;;;;;;;;9.75;8.00;;;;;16.37;64.84;100362.78;146611;635;46018;-68
2023/05/26 01:31:38;;;;;;;;;10.25;9.25;;;;;19.18;66.14;100853.69;146603;624;47012;-68
2023/05/26 01:34:41;;;;;;;;;9.00;8.00;;;;;19.20;66.36;100851.97;146612;641;46016;-68
2023/05/26 01:37:36;;;;;;;;;12.75;11.00;;;;;19.18;65.87;100843.16;146613;691;47012;-68
2023/05/26 01:40:46;;;;;;;;;9.00;9.00;;;;;19.18;66.37;100839.66;146605;569;46915;-68
2023/05/26 01:44:08;;;;;;;;;9.00;9.00;;;;;19.20;64.62;100843.22;146615;589;46021;-67
2023/05/26 01:47:25;;;;;;;;;12.00;9.33;;;;;19.24;66.45;100839.78;146611;617;47012;-67
2023/05/26 01:50:44;;;;;;;;;;;;;;;;;;;;;
2023/05/26 01:54:08;;;;;;;;;9.00;8.00;;;;;16.46;64.65;100359.47;146611;669;46912;-68
2023/05/26 01:57:07;;;;;;;;;8.25;8.25;;;;;19.21;66.07;100816.94;146614;708;47010;-67
2023/05/26 02:00:19;;;;;;;;;12.00;11.00;;;;;19.17;65.49;100825.62;146610;676;46014;-67
2023/05/26 02:03:28;;;;;;;;;8.25;8.25;;;;;16.23;64.67;100313.59;146604;575;46020;-67
2023/05/26 02:06:36;;;;;;;;;11.25;10.00;;;;;16.72;64.40;100399.28;146617;581;46016;-67
2023/05/26 02:09:46;;;;;;;;;;;;;;;;;;;;;
2023/05/26 02:12:46;;;;;;;;;8.67;7.67;;;;;19.28;65.47;100815.28;146609;594;46017;-68
2023/05/26 02:15:48;;;;;;;;;10.00;8.67;;;;;19.27;64.91;100816.16;146618;693;46020;-68
2023/05/26 02:18:46;;;;;;;;;12.75;10.75;;;;;19.27;65.92;100813.53;146613;616;46032;-68
2023/05/26 02:21:53;;;;;;;;;10.75;10.25;;;;;19.18;66.68;100805.50;146608;579;46010;-67
2023/05/26 02:24:48;;;;;;;;;11.00;10.00;;;;;19.11;67.88;100808.00;146610;694;46012;-67
2023/05/26 02:27:27;;;;;;;;;10.00;10.00;;;;;19.01;69.43;100807.84;146698;564;46022;-67
2023/05/26 02:30:28;;;;;;;;;11.75;11.00;;;;;18.98;67.90;100811.28;146620;698;46012;-67
2023/05/26 02:33:26;;;;;;;;;11.50;10.50;;;;;18.94;67.99;100809.47;146621;579;47010;-66
2023/05/26 02:36:20;;;;;;;;;10.50;9.75;;;;;18.91;68.03;100801.53;146613;668;47014;-67
2023/05/26 02:39:12;;;;;;;;;8.75;8.75;;;;;18.87;67.75;100797.94;146620;585;47010;-66
2023/05/26 02:42:07;;;;;;;;;11.25;9.25;;;;;18.88;67.86;100796.22;146618;578;46012;-67
2023/05/26 02:45:20;;;;;;;;;10.50;10.00;;;;;17.09;67.76;100504.87;146621;688;46010;-67
2023/05/26 02:48:14;;;;;;;;;12.75;11.00;;;;;18.83;69.78;100796.13;146614;679;46012;-68
2023/05/26 02:51:15;;;;;;;;;12.25;10.25;;;;;18.74;67.36;100803.81;146617;667;46020;-68
2023/05/26 02:54:20;;;;;;;;;10.50;9.50;;;;;18.72;68.08;100802.84;146615;607;46013;-67
2023/05/26 02:57:24;;;;;;;;;11.25;10.75;;;;;18.73;66.76;100799.44;146623;687;46020;-67
2023/05/26 03:00:32;;;;;;;;;9.50;8.75;;;;;18.70;66.31;100784.47;146617;596;47013;-66
2023/05/26 03:03:30;;;;;;;;;10.25;9.00;;;;;18.85;67.45;100799.66;146619;565;46020;-67
2023/05/26 03:06:32;;;;;;;;;10.25;9.25;;;;;18.93;67.64;100805.03;146617;655;46016;-67
2023/05/26 03:09:31;;;;;;;;;12.50;11.50;;;;;18.99;67.15;100812.16;146620;615;46020;-67
2023/05/26 03:12:31;;;;;;;;;11.00;8.50;;;;;19.02;66.95;100802.59;146615;571;46918;-68
2023/05/26 03:15:50;;;;;;;;;11.00;10.00;;;;;19.01;66.50;100803.47;146622;606;46021;-68
2023/05/26 03:18:46;;;;;;;;;13.25;11.00;;;;;19.00;67.05;100808.66;146612;574;46016;-67
2023/05/26 03:21:56;;;;;;;;;13.50;11.75;;;;;19.04;67.69;100811.41;146618;589;46020;-67
2023/05/26 03:25:04;;;;;;;;;11.00;11.00;;;;;19.11;67.12;100815.00;146617;574;47012;-69
2023/05/26 03:28:49;;;;;;;;;;;;;;;;;;;;;
2023/05/26 03:31:55;;;;;;;;;13.00;11.50;;;;;19.28;66.27;100818.84;146614;591;46921;-67
2023/05/26 03:35:02;;;;;;;;;12.50;12.25;;;;;19.36;66.74;100826.84;146620;578;46010;-67
2023/05/26 03:38:10;;;;;;;;;;;;;;;;;;;;;
2023/05/26 03:41:15;;;;;;;;;11.75;11.25;;;;;19.42;66.59;100823.44;146620;569;46022;-68
2023/05/26 03:44:20;;;;;;;;;14.50;13.00;;;;;19.45;66.71;100831.38;146618;647;46017;-68
2023/05/26 03:47:14;;;;;;;;;11.50;11.50;;;;;19.49;68.07;100828.81;146620;689;47010;-68
2023/05/26 03:50:23;;;;;;;;;14.00;11.33;;;;;19.53;66.68;100821.84;146615;729;46016;-68
2023/05/26 03:53:28;;;;;;;;;12.00;11.00;;;;;19.58;67.72;100820.19;146622;604;46011;-66
2023/05/26 03:56:40;;;;;;;;;10.75;10.75;;;;;19.47;67.95;100812.12;146615;713;46032;-67
2023/05/26 03:59:51;;;;;;;;;;;;;;;;;;;;;
2023/05/26 04:02:55;;;;;;;;;13.75;13.25;;;;;19.57;69.10;100829.84;146616;624;47012;-68
2023/05/26 04:06:07;;;;;;;;;;;;;;;;;;;;;
2023/05/26 04:09:03;;;;;;;;;12.00;11.25;;;;;19.54;71.48;100829.78;146613;595;46016;-67
2023/05/26 04:12:05;;;;;;;;;12.75;11.00;;;;;19.50;73.92;100834.94;146621;570;46024;-68
2023/05/26 04:15:33;;;;;;;;;8.50;7.75;;;;;19.51;73.82;100834.13;146616;581;46014;-68
2023/05/26 04:18:31;;;;;;;;;11.75;10.50;;;;;19.54;74.62;100832.41;146617;566;47012;-67
2023/05/26 04:21:44;;;;;;;;;7.67;7.00;;;;;19.56;76.54;100837.69;146617;634;46016;-68
2023/05/26 04:24:49;;;;;;;;;10.25;9.25;;;;;19.57;75.64;100844.72;146620;678;46020;-67
2023/05/26 04:27:55;;;;;;;;;10.33;10.00;;;;;19.57;77.16;100853.50;146618;622;46016;-68
2023/05/26 04:30:55;;;;;;;;;9.33;9.33;;;;;19.60;76.50;100845.66;146622;588;46010;-67
2023/05/26 04:33:53;;;;;;;;;8.25;7.25;;;;;19.66;76.89;100844.00;146617;643;46016;-68
2023/05/26 04:37:03;;;;;;;;;8.00;6.00;;;;;19.67;77.23;100841.41;146621;681;46020;-68
2023/05/26 04:40:06;;;;;;;;;9.67;8.00;;;;;19.74;77.95;100850.28;146617;598;47014;-67
2023/05/26 04:43:06;;;;;;;;;9.00;8.00;;;;;19.81;74.82;100844.25;146617;626;47029;-67
2023/05/26 04:46:20;;;;;;;;;9.33;7.00;;;;;19.92;74.23;100847.06;146617;682;47916;-68
2023/05/26 04:49:25;;;;;;;;;11.67;9.67;;;;;20.08;74.27;100843.78;146623;627;46020;-68
2023/05/26 04:52:48;;;;;;;;;8.00;7.67;;;;;20.24;74.08;100847.50;146618;574;46016;-68
2023/05/26 04:55:54;;;;;;;;;8.00;7.00;;;;;20.40;70.68;100853.87;146621;582;46020;-67
2023/05/26 04:58:56;;;;;;;;;7.67;7.00;;;;;20.50;70.80;100854.03;146619;583;46016;-69
2023/05/26 05:02:09;;;;;;;;;12.33;9.33;;;;;20.57;70.81;100847.13;146622;597;47010;-68
2023/05/26 05:05:26;;;;;;;;;7.33;7.33;;;;;20.62;68.60;100841.88;146620;571;47013;-68
2023/05/26 05:08:24;;;;;;;;;7.67;7.00;;;;;20.72;69.48;100849.94;146623;640;47010;-67
2023/05/26 05:11:39;;;;;;;;;;;;;;;;;;;;;
2023/05/26 05:14:44;;;;;;;;;7.00;7.00;;;;;20.88;68.97;100856.25;146624;639;47011;-67
2023/05/26 05:17:47;;;;;;;;;8.25;7.75;;;;;20.93;68.87;100857.22;146615;699;47012;-67
2023/05/26 05:20:50;;;;;;;;;10.33;9.00;;;;;20.89;69.39;100846.59;146622;704;46020;-67
2023/05/26 05:24:02;;;;;;;;;11.67;10.33;;;;;20.89;69.53;100852.75;146618;569;47012;-67
2023/05/26 05:27:13;;;;;;;;;9.25;8.75;;;;;20.89;68.58;100857.16;146620;578;46010;-67
2023/05/26 05:30:14;;;;;;;;;12.50;10.50;;;;;20.94;68.79;100866.88;146620;660;46017;-68
2023/05/26 05:33:23;;;;;;;;;10.00;9.00;;;;;21.01;68.48;100861.66;146619;603;46010;-68
2023/05/26 05:36:23;;;;;;;;;8.00;7.00;;;;;21.13;68.93;100867.06;146618;589;46038;-67
2023/05/26 05:39:59;;;;;;;;;;;;;;;;;;;;;
2023/05/26 05:43:03;;;;;;;;;10.00;8.00;;;;;21.39;68.57;100860.31;146620;587;46017;-68
2023/05/26 05:46:05;;;;;;;;;11.00;7.00;;;;;21.62;67.34;100873.72;146617;626;49020;-67
2023/05/26 05:49:13;;;;;;;;;9.50;9.50;;;;;21.85;66.31;100871.25;146618;640;46016;-68
2023/05/26 05:52:05;;;;;;;;;9.00;9.00;;;;;22.04;66.66;100860.84;146623;590;47010;-69
2023/05/26 05:55:06;;;;;;;;;7.33;7.33;;;;;22.21;64.50;100864.50;146621;581;46012;-67
2023/05/26 05:58:08;;;;;;;;;10.67;8.33;;;;;22.29;64.52;100872.47;146623;712;46021;-69
2023/05/26 06:01:07;;;;;;;;;8.00;8.00;;;;;22.32;64.33;100873.34;146618;635;46033;-67
2023/05/26 06:04:22;;;;;;;;;8.50;8.50;;;;;21.16;62.83;100670.22;146623;564;46010;-67
2023/05/26 06:07:18;;;;;;;;;10.00;7.33;;;;;22.41;63.97;100876.94;146617;587;46017;-68
2023/05/26 06:10:24;;;;;;;;;9.33;9.33;;;;;22.57;64.19;100878.78;146624;581;46012;-68
2023/05/26 06:13:18;;;;;;;;;13.00;9.00;;;;;22.76;62.54;100879.72;146618;619;46016;-67
2023/05/26 06:16:16;;;;;;;;;7.00;7.00;;;;;22.76;62.09;100875.31;146618;661;46020;-67
2023/05/26 06:19:21;;;;;;;;;10.33;7.00;;;;;22.86;61.59;100870.06;146617;593;47013;-69
2023/05/26 06:22:19;;;;;;;;;11.00;9.00;;;;;23.12;61.20;100876.34;146617;651;48010;-67
2023/05/26 06:25:24;;;;;;;;;9.00;8.33;;;;;23.37;58.25;100873.75;146621;573;46016;-68
2023/05/26 06:28:23;;;;;;;;;9.50;8.75;;;;;22.59;58.03;100698.19;146621;566;46010;-68
2023/05/26 06:31:35;;;;;;;;;10.33;9.67;;;;;23.77;58.39;100872.03;146620;565;46012;-68
2023/05/26 06:34:39;;;;;;;;;11.67;8.67;;;;;23.98;57.81;100881.72;146620;587;46021;-67
2023/05/26 06:37:35;;;;;;;;;10.00;9.00;;;;;24.19;58.37;100876.38;146618;578;46016;-68
2023/05/26 06:40:32;;;;;;;;;9.67;9.00;;;;;24.35;57.24;100884.28;146624;563;46010;-68
2023/05/26 06:43:33;;;;;;;;;8.75;8.00;;;;;24.51;56.65;100890.44;146617;590;46918;-69
2023/05/26 06:46:36;;;;;;;;;6.00;6.00;;;;;24.62;55.47;100886.00;146623;603;46020;-69
2023/05/26 06:49:28;;;;;;;;;8.67;8.00;;;;;24.75;49.39;100885.06;146616;578;46024;-68
2023/05/26 06:52:26;;;;;;;;;8.75;7.75;;;;;24.81;50.77;100879.72;146621;615;46020;-68
2023/05/26 06:55:35;;;;;;;;;7.67;7.00;;;;;24.92;52.03;100882.31;146620;564;45016;-69
2023/05/26 06:58:42;;;;;;;;;;;;;;;;;;;;;
2023/05/26 07:01:49;;;;;;;;;8.00;8.00;;;;;25.26;51.93;100875.06;146619;581;46016;-68
2023/05/26 07:04:51;;;;;;;;;7.00;7.00;;;;;25.39;50.88;100873.22;146620;570;46011;-68
2023/05/26 07:08:13;;;;;;;;;9.67;9.67;;;;;25.45;54.60;100873.19;146617;609;46016;-67
2023/05/26 07:11:13;;;;;;;;;8.00;7.00;;;;;25.49;53.26;100868.72;146622;573;46021;-67
2023/05/26 07:14:05;;;;;;;;;9.00;7.00;;;;;25.44;52.75;100879.38;146619;601;47014;-68
2023/05/26 07:17:01;;;;;;;;;8.33;7.00;;;;;25.44;52.34;100873.19;146622;593;46020;-67
2023/05/26 07:19:54;;;;;;;;;7.33;7.33;;;;;25.49;52.15;100877.56;146618;600;46017;-69
2023/05/26 07:22:53;;;;;;;;;8.33;8.33;;;;;25.48;53.23;100867.84;146622;601;46020;-69
2023/05/26 07:25:48;;;;;;;;;9.00;9.00;;;;;25.54;54.05;100878.41;146617;589;46014;-68
2023/05/26 07:28:46;;;;;;;;;6.33;6.33;;;;;25.61;52.18;100868.63;146621;569;46029;-67
2023/05/26 07:31:44;;;;;;;;;9.00;7.00;;;;;25.73;51.31;100857.00;146621;692;45032;-68
2023/05/26 07:34:44;;;;;;;;;7.33;7.33;;;;;25.87;50.57;100871.09;146624;565;47010;-68
2023/05/26 07:37:40;;;;;;;;;7.00;7.00;;;;;25.98;50.82;100873.63;146617;575;47012;-68
2023/05/26 07:40:54;;;;;;;;;8.33;7.67;;;;;26.05;51.69;100863.84;146619;570;47011;-68
2023/05/26 07:43:48;;;;;;;;;8.67;8.67;;;;;26.00;49.45;100871.84;146619;582;46012;-68
2023/05/26 07:46:50;;;;;;;;;6.50;6.50;;;;;25.83;50.26;100866.69;146615;651;46010;-69
2023/05/26 07:49:47;;;;;;;;;7.33;6.00;;;;;25.74;49.13;100864.97;146620;590;46016;-69
2023/05/26 07:52:41;;;;;;;;;8.00;6.67;;;;;25.79;48.19;100864.91;146620;618;47010;-68
2023/05/26 07:55:49;;;;;;;;;8.00;8.00;;;;;24.63;50.31;100635.88;146617;583;46016;-68
2023/05/26 07:59:06;;;;;;;;;7.33;6.33;;;;;26.11;46.48;100863.78;146623;590;47010;-68
2023/05/26 08:01:58;;;;;;;;;6.67;6.67;;;;;26.23;46.81;100864.53;146618;613;46016;-67
2023/05/26 08:05:00;;;;;;;;;6.33;6.00;;;;;26.33;47.77;100864.41;146622;602;46010;-68
2023/05/26 08:07:56;;;;;;;;;7.67;6.33;;;;;26.46;45.85;100860.72;146620;570;46012;-68
2023/05/26 08:10:54;;;;;;;;;8.00;6.67;;;;;26.49;46.90;100863.38;146622;638;46021;-68
2023/05/26 08:13:50;;;;;;;;;5.33;5.00;;;;;26.58;45.05;100865.03;146617;591;46016;-66
2023/05/26 08:16:48;;;;;;;;;10.33;7.33;;;;;26.45;47.20;100866.94;146615;694;46020;-67
2023/05/26 08:19:43;;;;;;;;;9.00;8.67;;;;;26.37;46.73;100875.00;146620;626;46916;-68
2023/05/26 08:22:48;;;;;;;;;7.00;7.00;;;;;26.24;47.77;100876.03;146619;582;46020;-67
2023/05/26 08:26:01;;;;;;;;;8.67;8.67;;;;;26.24;49.86;100866.28;146619;640;46016;-68
2023/05/26 08:28:59;;;;;;;;;9.00;8.00;;;;;26.35;49.42;100866.12;146620;602;46020;-66
2023/05/26 08:32:00;;;;;;;;;9.67;9.00;;;;;26.41;48.85;100874.03;146619;755;46017;-67
2023/05/26 08:35:07;;;;;;;;;;;;;;;;;;;;;
2023/05/26 08:38:14;;;;;;;;;8.00;8.00;;;;;26.35;48.28;100876.78;146616;569;46016;-69
2023/05/26 08:41:26;;;;;;;;;8.00;7.33;;;;;26.39;49.03;100870.53;146622;613;46020;-69
2023/05/26 08:44:29;;;;;;;;;7.00;5.00;;;;;26.39;47.34;100882.97;146619;566;46012;-69
2023/05/26 08:47:49;;;;;;;;;7.00;6.67;;;;;26.40;49.43;100890.91;146613;619;46021;-67
2023/05/26 08:51:11;;;;;;;;;7.33;7.00;;;;;26.26;48.63;100883.09;146619;630;46012;-68
2023/05/26 08:54:20;;;;;;;;;;;;;;;;;;;;;
2023/05/26 08:57:20;;;;;;;;;7.33;6.67;;;;;26.01;47.53;100898.41;146618;625;46486;-69
2023/05/26 09:00:25;;;;;;;;;6.67;6.67;;;;;26.07;47.41;100889.47;146624;576;46010;-68
2023/05/26 09:03:19;;;;;;;;;5.33;5.33;;;;;26.08;46.39;100896.56;146619;564;46012;-68
2023/05/26 09:06:15;;;;;;;;;8.00;8.00;;;;;26.02;46.61;100892.19;146623;624;46010;-67
2023/05/26 09:09:14;;;;;;;;;6.00;5.33;;;;;26.09;46.36;100890.34;146619;633;46017;-68
2023/05/26 09:12:13;;;;;;;;;7.00;6.33;;;;;26.14;47.82;100899.16;146622;582;47010;-69
2023/05/26 09:15:20;;;;;;;;;7.67;6.33;;;;;26.24;45.17;100895.50;146617;585;46016;-67
2023/05/26 09:18:35;;;;;;;;;7.00;7.00;;;;;26.22;46.70;100896.41;146613;628;46020;-69
2023/05/26 09:21:50;;;;;;;;;8.00;8.00;;;;;26.17;44.64;100896.47;146619;564;46012;-67
2023/05/26 09:25:02;;;;;;;;;8.00;7.00;;;;;26.16;48.66;100881.41;146624;708;46021;-68
2023/05/26 09:28:40;;;;;;;;;7.33;7.33;;;;;26.34;48.36;100885.66;146618;612;46922;-68
2023/05/26 09:31:53;;;;;;;;;7.00;6.33;;;;;26.35;47.42;100900.69;146619;570;46021;-67
2023/05/26 09:34:50;;;;;;;;;7.67;7.67;;;;;26.35;45.19;100902.47;146615;565;46016;-69
2023/05/26 09:38:07;;;;;;;;;6.33;6.33;;;;;26.39;45.88;100897.13;146620;628;47010;-69
2023/05/26 09:40:59;;;;;;;;;8.00;8.00;;;;;26.51;45.15;100900.56;146619;571;46918;-66
2023/05/26 09:44:34;;;;;;;;;6.33;6.00;;;;;26.64;46.79;100892.44;146621;552;46020;-67
2023/05/26 09:47:37;;;;;;;;;6.00;6.00;;;;;26.66;46.36;100900.38;146616;596;47012;-68
2023/05/26 09:51:04;;;;;;;;;8.00;8.00;;;;;26.57;48.87;100881.88;146621;605;46020;-68
2023/05/26 09:54:11;;;;;;;;;6.67;6.67;;;;;26.64;45.54;100892.44;146618;621;47013;-67
2023/05/26 09:57:25;;;;;;;;;6.33;6.00;;;;;26.49;47.81;100888.19;146620;595;46012;-67
2023/05/26 10:00:26;;;;;;;;;7.00;6.67;;;;;26.50;45.84;100889.06;146617;595;45914;-67
2023/05/26 10:03:26;;;;;;;;;5.00;5.00;;;;;26.64;46.26;100879.12;146622;574;46020;-67
2023/05/26 10:06:36;;;;;;;;;6.00;6.00;;;;;26.75;45.05;100881.66;146616;629;46916;-67
2023/05/26 10:09:35;;;;;;;;;6.00;6.00;;;;;26.73;45.36;100875.50;146623;601;46011;-68
2023/05/26 10:12:38;;;;;;;;;8.00;8.00;;;;;26.86;45.40;100884.19;146621;624;47012;-69
2023/05/26 10:15:31;;;;;;;;;6.00;6.00;;;;;26.95;41.65;100876.09;146619;576;47020;-67
2023/05/26 10:18:27;;;;;;;;;5.67;4.67;;;;;26.98;44.46;100869.81;146618;611;47012;-67
2023/05/26 10:21:23;;;;;;;;;8.33;7.33;;;;;27.08;45.40;100856.38;146622;620;46010;-67
2023/05/26 10:24:31;;;;;;;;;8.00;8.00;;;;;27.13;46.74;100853.63;146617;570;46017;-67
2023/05/26 10:28:23;;;;;;;;;7.00;6.00;;;;;26.18;48.15;100693.59;146620;577;46020;-67
2023/05/26 10:31:42;;;;;;;;;5.00;4.00;;;;;27.11;47.42;100858.09;146617;655;47014;-67
2023/05/26 10:35:05;;;;;;;;;9.00;8.00;;;;;26.69;48.29;100799.28;146622;567;46020;-67
2023/05/26 10:38:20;;;;;;;;;6.67;6.67;;;;;27.03;47.28;100863.53;146613;639;46017;-67
2023/05/26 10:41:53;;;;;;;;;9.00;8.33;;;;;26.94;47.42;100853.87;146625;620;46010;-69
2023/05/26 10:44:59;;;;;;;;;6.67;6.00;;;;;27.03;46.95;100858.19;146618;588;46016;-67
2023/05/26 10:48:01;;;;;;;;;4.67;4.67;;;;;27.08;45.92;100867.00;146615;572;46917;-66
2023/05/26 10:51:31;;;;;;;;;7.50;6.00;;;;;27.07;48.03;100853.72;146621;584;46016;-67
2023/05/26 10:54:35;;;;;;;;;8.67;6.67;;;;;27.25;45.55;100857.91;146613;644;46021;-69
2023/05/26 10:57:46;;;;;;;;;7.00;6.00;;;;;27.34;47.02;100853.31;146619;573;46918;-67
2023/05/26 11:00:50;;;;;;;;;5.67;5.67;;;;;27.38;46.15;100848.81;146621;579;46021;-67
2023/05/26 11:04:09;;;;;;;;;8.00;7.33;;;;;27.35;48.56;100851.53;146619;640;46033;-70
2023/05/26 11:07:14;;;;;;;;;7.33;6.67;;;;;27.28;45.62;100839.25;146622;598;46021;-67
2023/05/26 11:10:16;;;;;;;;;5.33;5.33;;;;;27.26;47.42;100844.59;146619;576;46014;-69
2023/05/26 11:13:28;;;;;;;;;7.67;7.67;;;;;27.30;46.64;100840.97;146621;626;46020;-67
2023/05/26 11:16:57;;;;;;;;;;;;;;;;;;;;;
2023/05/26 11:20:10;;;;;;;;;4.00;4.00;;;;;27.40;44.07;100829.25;146624;594;46020;-68
2023/05/26 11:23:25;;;;;;;;;4.33;4.33;;;;;27.14;45.49;100781.78;146617;570;46016;-68
2023/05/26 11:26:32;;;;;;;;;6.67;5.00;;;;;27.50;44.64;100827.31;146618;599;46010;-68
2023/05/26 11:29:49;;;;;;;;;1.33;1.33;;;;;26.57;45.86;100659.38;146618;665;46013;-67
2023/05/26 11:33:03;;;;;;;;;5.67;5.00;;;;;27.58;45.30;100812.09;146623;583;46020;-68
2023/05/26 11:36:12;;;;;;;;;6.00;5.00;;;;;27.72;46.83;100801.19;146615;566;46016;-68
2023/05/26 11:39:31;;;;;;;;;4.33;4.33;;;;;27.81;48.03;100800.19;146621;566;46021;-68
2023/05/26 11:42:32;;;;;;;;;6.00;6.00;;;;;27.71;43.73;100794.09;146620;576;46012;-68
2023/05/26 11:45:28;;;;;;;;;4.00;4.00;;;;;27.62;44.08;100792.47;146622;582;46010;-67
2023/05/26 11:48:30;;;;;;;;;4.33;4.33;;;;;27.32;42.58;100748.66;146620;618;46016;-68
2023/05/26 11:51:30;;;;;;;;;4.00;3.67;;;;;27.54;45.42;100774.88;146621;569;46020;-68
2023/05/26 11:54:31;;;;;;;;;7.00;5.00;;;;;26.63;43.92;100606.09;146618;595;46016;-68
2023/05/26 11:57:36;;;;;;;;;3.00;3.00;;;;;27.60;40.32;100761.44;146616;636;46012;-70
2023/05/26 12:00:34;;;;;;;;;1.67;1.67;;;;;27.40;41.67;100761.81;146618;621;46917;-69
2023/05/26 12:03:41;;;;;;;;;5.33;5.33;;;;;27.15;41.54;100774.66;146622;579;46010;-68
2023/05/26 12:06:55;;;;;;;;;4.00;3.67;;;;;25.61;43.64;100565.03;146617;670;46016;-69
2023/05/26 12:10:10;;;;;;;;;5.00;4.00;;;;;26.55;43.97;100764.91;146620;573;48020;-68
2023/05/26 12:13:14;;;;;;;;;5.00;5.00;;;;;26.32;45.47;100762.50;146618;607;46014;-68
2023/05/26 12:16:48;;;;;;;;;4.67;4.67;;;;;26.22;45.19;100758.22;146624;564;46010;-70
2023/05/26 12:19:40;;;;;;;;;6.00;3.33;;;;;26.22;42.46;100759.09;146616;637;47012;-68
2023/05/26 12:22:37;;;;;;;;;4.00;4.00;;;;;26.29;44.14;100743.94;146621;574;46021;-68
2023/05/26 12:25:52;;;;;;;;;5.00;3.67;;;;;25.39;43.85;100565.31;146619;565;46016;-69
2023/05/26 12:28:59;;;;;;;;;7.33;6.00;;;;;26.41;43.35;100734.91;146614;569;47008;-69
2023/05/26 12:32:02;;;;;;;;;5.00;3.00;;;;;26.53;45.11;100733.91;146611;602;48916;-67
2023/05/26 12:35:00;;;;;;;;;5.00;4.00;;;;;26.58;43.05;100737.38;146619;649;46020;-68
2023/05/26 12:37:57;;;;;;;;;3.00;3.00;;;;;26.56;43.54;100733.88;146619;593;46016;-68
2023/05/26 12:40:52;;;;;;;;;5.33;4.00;;;;;26.53;43.48;100724.16;146622;625;46020;-68
2023/05/26 12:43:55;;;;;;;;;4.67;4.00;;;;;26.56;44.17;100721.44;146618;601;46017;-67
2023/05/26 12:46:56;;;;;;;;;3.67;3.67;;;;;26.62;45.24;100734.66;146621;576;46020;-67
2023/05/26 12:49:52;;;;;;;;;9.33;7.33;;;;;26.64;44.45;100724.00;146620;569;46923;-68
2023/05/26 12:52:48;;;;;;;;;5.00;3.33;;;;;26.61;45.47;100721.37;146621;581;46020;-68
2023/05/26 12:55:47;;;;;;;;;5.00;5.00;;;;;26.63;47.25;100731.06;146619;573;46016;-69
2023/05/26 12:58:55;;;;;;;;;5.67;5.33;;;;;26.68;46.67;100729.25;146614;570;46021;-68
2023/05/26 13:01:59;;;;;;;;;5.67;4.67;;;;;26.65;46.17;100725.75;146620;678;46014;-69
2023/05/26 13:05:13;;;;;;;;;;;;;;;;;;;;;
2023/05/26 13:08:30;;;;;;;;;;;;;;;;;;;;;
2023/05/26 13:11:34;;;;;;;;;6.00;6.00;;;;;26.27;48.16;100720.03;146622;586;46020;-69
2023/05/26 13:14:30;;;;;;;;;6.00;6.00;;;;;26.36;46.36;100739.44;146617;571;47014;-69
2023/05/26 13:17:26;;;;;;;;;5.33;5.00;;;;;26.33;45.62;100740.34;146620;563;46020;-68
2023/05/26 13:20:30;;;;;;;;;4.00;4.00;;;;;26.34;46.26;100738.56;146618;599;46017;-68
2023/05/26 13:23:39;;;;;;;;;3.00;3.00;;;;;26.38;48.85;100740.28;146623;611;46010;-68
2023/05/26 13:26:41;;;;;;;;;7.33;6.00;;;;;26.38;48.68;100743.81;146619;587;46014;-68
2023/05/26 13:29:46;;;;;;;;;6.33;5.33;;;;;26.32;49.12;100745.66;146620;593;46010;-71
2023/05/26 13:32:41;;;;;;;;;4.33;4.33;;;;;26.24;47.72;100744.00;146618;647;46016;-68
2023/05/26 13:36:03;;;;;;;;;;;;;;;;;;;;;
2023/05/26 13:39:11;;;;;;;;;7.67;5.00;;;;;26.17;46.10;100745.00;146620;613;46012;-67
2023/05/26 13:42:10;;;;;;;;;6.00;5.00;;;;;26.23;46.72;100754.63;146623;617;46020;-69
2023/05/26 13:45:18;;;;;;;;;6.33;6.00;;;;;26.29;46.41;100746.59;146618;581;46016;-67
2023/05/26 13:48:13;;;;;;;;;8.33;5.00;;;;;26.36;45.72;100729.69;146621;563;47010;-67
2023/05/26 13:51:11;;;;;;;;;6.67;6.00;;;;;26.35;44.57;100740.31;146618;627;47012;-68
2023/05/26 13:54:16;;;;;;;;;4.00;4.00;;;;;26.33;45.34;100729.72;146620;668;47010;-68
2023/05/26 13:57:12;;;;;;;;;5.00;5.00;;;;;26.34;43.69;100726.16;146621;641;46012;-68
2023/05/26 14:00:12;;;;;;;;;6.00;5.00;;;;;26.30;44.84;100729.75;146619;579;46020;-68
2023/05/26 14:03:29;;;;;;;;;5.33;4.33;;;;;26.24;45.54;100717.44;146618;653;46035;-68
2023/05/26 14:06:34;;;;;;;;;4.67;3.67;;;;;26.21;46.27;100717.47;146622;655;46021;-69
2023/05/26 14:09:31;;;;;;;;;6.00;5.00;;;;;26.24;45.49;100719.22;146618;593;46014;-67
2023/05/26 14:12:47;;;;;;;;;5.00;5.00;;;;;26.25;47.36;100716.50;146624;600;46010;-67
2023/05/26 14:16:03;;;;;;;;;4.67;4.67;;;;;25.04;47.45;100512.63;146619;590;46014;-69
2023/05/26 14:18:59;;;;;;;;;4.00;4.00;;;;;26.18;45.60;100722.81;146621;602;46020;-68
2023/05/26 14:22:06;;;;;;;;;;;;;;;;;;;;;
2023/05/26 14:25:29;;;;;;;;;7.00;7.00;;;;;23.88;47.41;100321.22;146621;570;46033;-68
2023/05/26 14:28:52;;;;;;;;;5.00;5.00;;;;;26.10;45.92;100707.87;146615;617;46017;-68
2023/05/26 14:31:59;;;;;;;;;;;;;;;;;;;;;
2023/05/26 14:35:06;;;;;;;;;5.00;5.00;;;;;26.08;47.55;100702.59;146615;608;46025;-68
2023/05/26 14:37:59;;;;;;;;;8.00;5.00;;;;;26.13;47.07;100702.50;146616;569;47010;-67
2023/05/26 14:41:16;;;;;;;;;;;;;;;;;;;;;
2023/05/26 14:44:17;;;;;;;;;5.00;5.00;;;;;26.07;44.99;100700.81;146618;623;47012;-67
2023/05/26 14:47:22;;;;;;;;;7.00;7.00;;;;;26.01;46.98;100707.09;146614;635;46036;-68
2023/05/26 14:50:24;;;;;;;;;6.33;5.00;;;;;25.94;47.99;100700.09;146619;602;46021;-67